createdAt,value
2022-08-07T00:01:43.746Z,99.90
2022-08-07T00:05:03.963Z,99.90
2022-08-07T00:07:40.242Z,99.90
2022-08-07T00:10:27.014Z,99.90
2022-08-07T00:12:59.773Z,99.90
2022-08-07T00:15:38.343Z,99.90
2022-08-07T00:18:18.815Z,99.90
2022-08-07T00:20:48.701Z,99.90
2022-08-07T00:23:17.107Z,99.90
2022-08-07T00:25:51.690Z,99.90
2022-08-07T00:28:33.807Z,99.90
2022-08-07T00:31:12.819Z,99.90
2022-08-07T00:33:43.275Z,99.90
2022-08-07T00:36:14.320Z,99.90
2022-08-07T00:38:40.885Z,99.90
2022-08-07T00:41:09.910Z,99.90
2022-08-07T00:44:00.978Z,99.90
2022-08-07T00:46:29.983Z,99.90
2022-08-07T00:49:01.896Z,99.90
2022-08-07T00:51:57.163Z,99.90
2022-08-07T00:54:25.402Z,99.90
2022-08-07T00:56:52.174Z,99.90
2022-08-07T00:59:35.059Z,99.90
2022-08-07T01:02:08.944Z,99.90
2022-08-07T01:04:43.162Z,99.90
2022-08-07T01:07:12.666Z,99.90
2022-08-07T01:10:04.292Z,99.90
2022-08-07T01:12:35.675Z,99.90
2022-08-07T01:15:04.466Z,99.90
2022-08-07T01:17:33.778Z,99.90
2022-08-07T01:20:16.738Z,99.90
2022-08-07T01:22:46.777Z,99.90
2022-08-07T01:25:54.696Z,99.90
2022-08-07T01:28:23.513Z,99.90
2022-08-07T01:30:53.393Z,99.90
2022-08-07T01:33:20.971Z,99.90
2022-08-07T01:35:53.353Z,99.90
2022-08-07T01:38:24.901Z,99.90
2022-08-07T01:40:58.607Z,99.90
2022-08-07T01:43:27.419Z,99.90
2022-08-07T01:46:05.825Z,99.90
2022-08-07T01:48:40.890Z,99.90
2022-08-07T01:51:58.673Z,99.90
2022-08-07T01:54:37.508Z,99.90
2022-08-07T01:57:24.784Z,99.90
2022-08-07T02:00:13.442Z,99.90
2022-08-07T02:03:18.487Z,99.90
2022-08-07T02:06:30.990Z,99.90
2022-08-07T02:09:04.318Z,99.90
2022-08-07T02:12:03.236Z,99.90
2022-08-07T02:14:36.074Z,99.90
2022-08-07T02:17:06.152Z,99.90
2022-08-07T02:20:04.686Z,99.90
2022-08-07T02:22:41.132Z,99.90
2022-08-07T02:25:13.795Z,99.90
2022-08-07T02:27:52.301Z,99.90
2022-08-07T02:30:20.202Z,99.90
2022-08-07T02:33:03.862Z,99.90
2022-08-07T02:36:28.378Z,99.90
2022-08-07T02:39:02.816Z,99.90
2022-08-07T02:41:50.620Z,99.90
2022-08-07T02:44:23.913Z,99.90
2022-08-07T02:46:57.856Z,99.90
2022-08-07T02:49:28.903Z,99.90
2022-08-07T02:52:34.179Z,99.90
2022-08-07T02:55:28.019Z,99.90
2022-08-07T02:58:33.429Z,99.90
2022-08-07T03:01:03.400Z,99.90
2022-08-07T03:03:49.308Z,99.90
2022-08-07T03:06:25.910Z,99.90
2022-08-07T03:09:02.210Z,99.90
2022-08-07T03:11:32.927Z,99.90
2022-08-07T03:14:05.897Z,99.90
2022-08-07T03:16:35.179Z,99.90
2022-08-07T03:19:02.246Z,99.90
2022-08-07T03:21:33.098Z,99.90
2022-08-07T03:24:17.875Z,99.90
2022-08-07T03:26:59.239Z,99.90
2022-08-07T03:29:37.649Z,99.90
2022-08-07T03:32:13.065Z,99.90
2022-08-07T03:34:47.514Z,99.90
2022-08-07T03:37:32.554Z,99.90
2022-08-07T03:40:15.634Z,99.90
2022-08-07T03:42:44.179Z,99.90
2022-08-07T03:45:12.048Z,99.90
2022-08-07T03:47:58.489Z,99.90
2022-08-07T03:50:28.605Z,99.90
2022-08-07T03:52:58.872Z,99.90
2022-08-07T03:55:42.866Z,99.90
2022-08-07T03:59:05.667Z,99.90
2022-08-07T04:01:45.569Z,99.90
2022-08-07T04:04:17.456Z,99.90
2022-08-07T04:06:45.430Z,99.90
2022-08-07T04:09:15.742Z,99.90
2022-08-07T04:12:27.521Z,99.90
2022-08-07T04:14:56.459Z,99.90
2022-08-07T04:17:23.117Z,99.90
2022-08-07T04:20:57.516Z,99.90
2022-08-07T04:23:43.225Z,99.90
2022-08-07T04:26:28.840Z,99.90
2022-08-07T04:28:55.737Z,99.90
2022-08-07T04:31:38.953Z,99.90
2022-08-07T04:34:36.492Z,99.90
2022-08-07T04:37:07.967Z,99.90
2022-08-07T04:39:45.609Z,99.90
2022-08-07T04:42:14.584Z,99.90
2022-08-07T04:44:54.598Z,99.90
2022-08-07T04:48:00.441Z,99.90
2022-08-07T04:51:05.309Z,99.90
2022-08-07T04:54:07.824Z,99.90
2022-08-07T04:58:16.566Z,99.90
2022-08-07T05:02:03.026Z,99.90
2022-08-07T05:04:59.521Z,99.90
2022-08-07T05:07:55.410Z,99.90
2022-08-07T05:10:36.757Z,99.90
2022-08-07T05:14:52.324Z,99.90
2022-08-07T05:17:51.467Z,99.90
2022-08-07T05:20:29.686Z,99.90
2022-08-07T05:23:06.442Z,99.90
2022-08-07T05:26:13.517Z,99.90
2022-08-07T05:28:50.287Z,99.90
2022-08-07T05:31:21.693Z,99.90
2022-08-07T05:34:04.706Z,99.90
2022-08-07T05:36:35.619Z,99.90
2022-08-07T05:40:05.054Z,99.90
2022-08-07T05:42:37.035Z,99.90
2022-08-07T05:45:25.703Z,99.90
2022-08-07T05:48:02.136Z,99.90
2022-08-07T05:50:33.476Z,99.90
2022-08-07T05:53:01.899Z,99.90
2022-08-07T05:56:03.869Z,99.90
2022-08-07T05:58:37.213Z,99.90
2022-08-07T06:01:10.511Z,99.90
2022-08-07T06:03:56.410Z,99.90
2022-08-07T06:06:29.569Z,99.90
2022-08-07T06:09:00.492Z,99.90
2022-08-07T06:11:27.613Z,99.90
2022-08-07T06:14:12.924Z,99.90
2022-08-07T06:16:56.035Z,99.90
2022-08-07T06:19:52.026Z,99.90
2022-08-07T06:22:38.501Z,99.90
2022-08-07T06:25:06.590Z,99.90
2022-08-07T06:28:00.007Z,99.90
2022-08-07T06:30:35.519Z,99.90
2022-08-07T06:33:05.735Z,99.90
2022-08-07T06:35:48.159Z,99.90
2022-08-07T06:38:51.295Z,99.90
2022-08-07T06:42:58.346Z,99.90
2022-08-07T06:45:25.028Z,99.90
2022-08-07T06:47:58.422Z,99.90
2022-08-07T06:50:30.487Z,99.90
2022-08-07T06:53:04.257Z,99.90
2022-08-07T06:55:53.611Z,99.90
2022-08-07T06:58:29.446Z,99.90
2022-08-07T07:01:00.089Z,99.90
2022-08-07T07:03:48.767Z,99.90
2022-08-07T07:06:26.125Z,99.90
2022-08-07T07:08:52.990Z,99.90
2022-08-07T07:12:08.579Z,99.60
2022-08-07T07:15:32.459Z,99.50
2022-08-07T07:18:33.049Z,99.50
2022-08-07T07:21:40.130Z,99.20
2022-08-07T07:24:12.591Z,98.60
2022-08-07T07:26:51.671Z,98.40
2022-08-07T07:29:40.493Z,99.20
2022-08-07T07:32:39.937Z,98.30
2022-08-07T07:35:11.320Z,98.70
2022-08-07T07:37:45.243Z,98.30
2022-08-07T07:40:20.811Z,98.20
2022-08-07T07:42:56.975Z,98.00
2022-08-07T07:46:37.826Z,98.10
2022-08-07T07:50:35.392Z,98.10
2022-08-07T07:53:20.241Z,98.40
2022-08-07T07:56:01.027Z,98.80
2022-08-07T07:58:40.627Z,98.60
2022-08-07T08:02:02.806Z,98.10
2022-08-07T08:04:35.437Z,98.40
2022-08-07T08:07:07.781Z,99.30
2022-08-07T08:09:52.122Z,98.20
2022-08-07T08:12:52.166Z,97.00
2022-08-07T08:15:21.854Z,97.00
2022-08-07T08:17:57.872Z,97.50
2022-08-07T08:20:32.240Z,97.00
2022-08-07T08:23:20.644Z,96.60
2022-08-07T08:26:08.399Z,97.90
2022-08-07T08:28:43.472Z,96.40
2022-08-07T08:31:29.883Z,96.60
2022-08-07T08:34:29.546Z,97.20
2022-08-07T08:36:58.456Z,96.60
2022-08-07T08:39:39.100Z,96.80
2022-08-07T08:42:51.552Z,97.10
2022-08-07T08:46:16.438Z,96.20
2022-08-07T08:50:04.596Z,95.70
2022-08-07T08:52:53.530Z,95.50
2022-08-07T08:56:08.408Z,95.10
2022-08-07T09:00:18.062Z,94.30
2022-08-07T09:06:00.976Z,96.20
2022-08-07T09:10:23.248Z,95.10
2022-08-07T09:18:06.012Z,95.80
2022-08-07T09:24:29.046Z,96.30
2022-08-07T09:27:02.013Z,94.50
2022-08-07T09:30:05.360Z,93.90
2022-08-07T09:36:02.988Z,92.70
2022-08-07T09:38:59.310Z,93.20
2022-08-07T09:47:24.851Z,93.40
2022-08-07T09:52:53.848Z,92.40
2022-08-07T09:58:18.343Z,91.60
2022-08-07T10:06:00.120Z,92.00
2022-08-07T10:14:55.087Z,92.50
2022-08-07T10:18:28.114Z,92.50
2022-08-07T10:22:14.307Z,92.30
2022-08-07T10:29:14.561Z,91.90
2022-08-07T10:32:51.568Z,91.40
2022-08-07T10:38:57.065Z,92.00
2022-08-07T10:41:46.431Z,92.10
2022-08-07T10:45:44.610Z,90.80
2022-08-07T10:49:13.630Z,90.50
2022-08-07T10:52:13.759Z,89.70
2022-08-07T10:55:01.518Z,86.00
2022-08-07T10:57:56.180Z,87.50
2022-08-07T11:00:43.128Z,87.10
2022-08-07T11:08:17.741Z,87.50
2022-08-07T11:11:00.553Z,85.90
2022-08-07T11:14:44.811Z,84.30
2022-08-07T11:17:43.594Z,83.20
2022-08-07T11:20:37.281Z,85.60
2022-08-07T11:25:25.347Z,83.40
2022-08-07T11:28:16.675Z,84.00
2022-08-07T11:31:08.832Z,84.60
2022-08-07T11:33:59.663Z,84.60
2022-08-07T11:37:04.717Z,86.10
2022-08-07T11:40:19.075Z,88.20
2022-08-07T11:47:00.013Z,89.80
2022-08-07T11:51:44.970Z,87.20
2022-08-07T11:58:00.185Z,90.30
2022-08-07T12:02:52.005Z,89.60
2022-08-07T12:07:44.263Z,87.90
2022-08-07T12:10:41.711Z,86.90
2022-08-07T12:13:35.674Z,85.60
2022-08-07T12:16:30.719Z,87.00
2022-08-07T12:20:02.741Z,87.00
2022-08-07T12:23:14.455Z,88.70
2022-08-07T12:26:22.337Z,88.20
2022-08-07T12:29:43.899Z,86.50
2022-08-07T12:32:29.251Z,87.70
2022-08-07T12:35:02.246Z,88.00
2022-08-07T12:38:08.976Z,86.50
2022-08-07T12:40:47.091Z,86.20
2022-08-07T12:44:02.111Z,85.30
2022-08-07T12:47:10.328Z,86.00
2022-08-07T12:50:39.315Z,85.50
2022-08-07T12:54:36.506Z,83.80
2022-08-07T12:57:09.407Z,84.40
2022-08-07T12:59:54.227Z,83.90
2022-08-07T13:08:11.636Z,83.70
2022-08-07T13:15:29.538Z,82.50
2022-08-07T13:18:37.835Z,83.20
2022-08-07T13:21:58.968Z,85.20
2022-08-07T13:25:00.273Z,84.10
2022-08-07T13:28:10.678Z,86.80
2022-08-07T13:30:53.419Z,85.00
2022-08-07T13:34:44.809Z,85.20
2022-08-07T13:39:02.043Z,85.30
2022-08-07T13:41:47.913Z,86.40
2022-08-07T13:44:26.190Z,87.30
2022-08-07T13:46:59.491Z,86.10
2022-08-07T13:50:35.276Z,86.80
2022-08-07T13:53:23.833Z,87.10
2022-08-07T13:55:54.629Z,87.80
2022-08-07T13:58:50.420Z,86.60
2022-08-07T14:01:27.830Z,87.40
2022-08-07T14:04:10.967Z,86.10
2022-08-07T14:06:48.540Z,87.40
2022-08-07T14:10:01.509Z,86.90
2022-08-07T14:12:56.780Z,85.50
2022-08-07T14:15:42.122Z,85.20
2022-08-07T14:18:57.502Z,85.50
2022-08-07T14:22:02.853Z,83.90
2022-08-07T14:24:44.937Z,86.00
2022-08-07T14:28:09.805Z,85.50
2022-08-07T14:30:52.196Z,85.30
2022-08-07T14:33:22.396Z,85.80
2022-08-07T14:35:58.629Z,86.10
2022-08-07T14:38:31.273Z,86.50
2022-08-07T14:41:33.844Z,86.40
2022-08-07T14:44:51.972Z,87.80
2022-08-07T14:52:04.929Z,85.50
2022-08-07T14:54:41.788Z,86.90
2022-08-07T14:57:19.503Z,88.20
2022-08-07T15:00:04.675Z,89.20
2022-08-07T15:02:36.927Z,88.10
2022-08-07T15:05:20.006Z,90.10
2022-08-07T15:12:34.355Z,85.50
2022-08-07T15:15:21.031Z,86.40
2022-08-07T15:17:59.346Z,86.00
2022-08-07T15:20:55.465Z,86.20
2022-08-07T15:25:14.832Z,86.60
2022-08-07T15:28:32.825Z,86.20
2022-08-07T15:31:12.165Z,85.90
2022-08-07T15:33:42.535Z,88.30
2022-08-07T15:36:11.683Z,86.10
2022-08-07T15:38:58.711Z,89.80
2022-08-07T15:42:42.336Z,86.80
2022-08-07T15:54:34.094Z,89.20
2022-08-07T15:57:04.778Z,90.30
2022-08-07T15:59:40.013Z,89.80
2022-08-07T16:02:24.924Z,89.80
2022-08-07T16:05:05.915Z,89.40
2022-08-07T16:08:31.925Z,89.50
2022-08-07T16:11:26.994Z,90.20
2022-08-07T16:18:02.003Z,90.40
2022-08-07T16:22:04.955Z,90.10
2022-08-07T16:24:58.955Z,89.20
2022-08-07T16:27:39.952Z,91.10
2022-08-07T16:30:30.599Z,91.40
2022-08-07T16:34:02.282Z,92.00
2022-08-07T16:38:04.178Z,91.80
2022-08-07T16:41:41.786Z,92.30
2022-08-07T16:47:07.692Z,91.40
2022-08-07T16:54:55.217Z,92.30
2022-08-07T16:58:15.890Z,93.60
2022-08-07T17:01:34.144Z,95.10
2022-08-07T17:07:55.710Z,96.30
2022-08-07T17:11:06.971Z,96.60
2022-08-07T17:14:18.215Z,94.70
2022-08-07T17:16:57.092Z,94.80
2022-08-07T17:20:01.008Z,95.50
2022-08-07T17:22:44.949Z,96.40
2022-08-07T17:25:51.607Z,97.30
2022-08-07T17:30:15.340Z,96.90
2022-08-07T17:35:32.837Z,97.40
2022-08-07T17:42:03.445Z,96.70
2022-08-07T17:44:58.523Z,97.50
2022-08-07T17:48:01.362Z,97.30
2022-08-07T17:51:21.315Z,97.10
2022-08-07T17:56:29.020Z,97.10
2022-08-07T18:00:06.777Z,98.20
2022-08-07T18:02:59.383Z,98.60
2022-08-07T18:06:02.400Z,99.30
2022-08-07T18:09:01.340Z,99.90
2022-08-07T18:12:16.319Z,99.80
2022-08-07T18:15:01.908Z,99.50
2022-08-07T18:18:46.500Z,99.90
2022-08-07T18:23:43.721Z,99.90
2022-08-07T18:26:30.541Z,99.90
2022-08-07T18:31:03.463Z,99.90
2022-08-07T18:35:00.556Z,99.90
2022-08-07T18:40:42.716Z,99.90
2022-08-07T18:46:27.877Z,99.90
2022-08-07T18:53:55.388Z,99.90
2022-08-07T19:02:32.059Z,99.90
2022-08-07T19:06:03.867Z,99.90
2022-08-07T19:09:15.825Z,99.90
2022-08-07T19:17:06.129Z,99.90
2022-08-07T19:21:00.111Z,99.90
2022-08-07T19:23:58.712Z,99.90
2022-08-07T19:28:29.580Z,99.90
2022-08-07T19:31:41.947Z,99.90
2022-08-07T19:34:43.219Z,99.90
2022-08-07T19:37:18.500Z,99.90
2022-08-07T19:40:02.661Z,99.90
2022-08-07T19:42:31.791Z,99.90
2022-08-07T19:46:07.370Z,99.90
2022-08-07T19:48:53.729Z,99.90
2022-08-07T19:51:52.539Z,99.90
2022-08-07T19:54:31.937Z,99.90
2022-08-07T19:58:02.865Z,99.90
2022-08-07T20:00:54.217Z,99.90
2022-08-07T20:03:35.708Z,99.90
2022-08-07T20:06:06.795Z,99.90
2022-08-07T20:08:48.804Z,99.90
2022-08-07T20:11:34.274Z,99.90
2022-08-07T20:14:54.052Z,99.90
2022-08-07T20:17:31.338Z,99.90
2022-08-07T20:20:06.516Z,99.90
2022-08-07T20:22:40.868Z,99.90
2022-08-07T20:25:12.979Z,99.90
2022-08-07T20:27:58.131Z,99.90
2022-08-07T20:30:33.842Z,99.90
2022-08-07T20:33:04.189Z,99.90
2022-08-07T20:35:36.586Z,99.90
2022-08-07T20:38:22.879Z,99.90
2022-08-07T20:40:55.939Z,99.90
2022-08-07T20:43:27.483Z,99.90
2022-08-07T20:46:28.787Z,99.90
2022-08-07T20:50:01.162Z,99.90
2022-08-07T20:52:50.751Z,99.90
2022-08-07T20:55:23.890Z,99.90
2022-08-07T20:58:02.363Z,99.90
2022-08-07T21:00:43.647Z,99.90
2022-08-07T21:03:16.178Z,99.90
2022-08-07T21:06:22.360Z,99.90
2022-08-07T21:09:17.726Z,99.90
2022-08-07T21:11:56.356Z,99.90
2022-08-07T21:14:34.946Z,99.90
2022-08-07T21:18:06.500Z,99.90
2022-08-07T21:20:59.394Z,99.90
2022-08-07T21:25:12.378Z,99.90
2022-08-07T21:29:53.040Z,99.90
2022-08-07T21:32:58.200Z,99.90
2022-08-07T21:36:06.601Z,99.90
2022-08-07T21:40:18.138Z,99.90
2022-08-07T21:43:04.574Z,99.90
2022-08-07T21:46:10.495Z,99.90
2022-08-07T21:49:14.414Z,99.90
2022-08-07T21:53:22.124Z,99.90
2022-08-07T21:56:49.596Z,99.90
2022-08-07T22:00:22.798Z,99.90
2022-08-07T22:03:16.817Z,99.90
2022-08-07T22:06:03.069Z,99.90
2022-08-07T22:08:47.297Z,99.90
2022-08-07T22:11:17.377Z,99.90
2022-08-07T22:13:54.849Z,99.90
2022-08-07T22:16:43.305Z,99.90
2022-08-07T22:19:36.982Z,99.90
2022-08-07T22:22:21.164Z,99.90
2022-08-07T22:25:10.330Z,99.90
2022-08-07T22:29:23.123Z,99.90
2022-08-07T22:35:00.834Z,99.90
2022-08-07T22:38:53.313Z,99.90
2022-08-07T22:42:03.032Z,99.90
2022-08-07T22:44:58.852Z,99.90
2022-08-07T22:48:31.580Z,99.90
2022-08-07T22:57:50.057Z,99.90
2022-08-07T23:00:28.363Z,99.90
2022-08-07T23:03:59.106Z,99.90
2022-08-07T23:10:06.413Z,99.90
2022-08-07T23:16:06.314Z,99.90
2022-08-07T23:19:47.696Z,99.90
2022-08-07T23:25:20.966Z,99.90
2022-08-07T23:32:49.368Z,99.90
2022-08-07T23:37:19.816Z,99.90
2022-08-07T23:44:39.717Z,99.90
2022-08-07T23:48:21.871Z,99.90
2022-08-07T23:52:59.824Z,99.90
2022-08-07T23:56:24.134Z,99.90
